Dallas, GA

4:26 PM EDT on March 29, 2015 (GMT -0400)
Camberley Park/Annandale | | Change Station
CLOSE
Current Station
Personal Weather Station
Location: Dallas, GA
Elevation: 1084 ft
Nearby Weather Stations

Elev 1084 ft 33.97 °N, 84.82 °W | Updated 1 second ago

Clear
Clear
60.4 °F
Feels Like 60.4 °F
N
4.0
Wind Variable Wind from SW
Gusts 4.0 mph

Today
High -- | Low -- °F
--% Chance of Precip.
Yesterday
High -- | Low -- °F
Precip. -- in
7:31 AM 7:57 PM
Waxing Gibbous, 74% visible
Pressure 30.27 in
Visibility 10.0 miles
Clouds Clear
Dew Point 25 °F
Humidity 26%
Rainfall 0.00 in
Snow Depth Not available.
UV 6 out of 12
Pollen 9.50 out of 12
Air Quality Not available.
Flu Activity Not available.
METAR KPUJ 292015Z AUTO 14007KT 10SM CLR 16/M02 A3027 RMK AO2

More Conditions Fewer Conditions

Pressure 30.27 in
Visibility 10.0 miles
Clouds Clear
Dew Point 25 °F
Humidity 26%
Rainfall 0.00 in
Snow Depth Not available.
UV 6 out of 12
Pollen 9.50 out of 12
Air Quality Not available.
Flu Activity Not available.
METAR KPUJ 292015Z AUTO 14007KT 10SM CLR 16/M02 A3027 RMK AO2

More Conditions Fewer Conditions

10-Day Weather Forecast

Almanac

Astronomy

Mar. 29, 2015 Rise Set
Actual Time
Civil Twilight
Nautical Twilight
Astronomical Twilight
Moon
Length of Visible Light
Length of Day
Tomorrow will be .
, % of the Moon is Illuminated

Today's Extremes

State Highs State Lows

Community

WunderPhotos

Upload Photos

1,809,344 photos uploaded!

WunderBlogs® & News

Nearby

Air Quality

  Air Quality AQ Index Pollutant
Not available.

Snow Depth

Station Depth Elevation

Earthquake Activity

City Distance Mag. Time & Date
Minimum magnitude displayed is 2.5.

Coastal Water Temperatures

Place Temperature

Stations

Nearby Weather Stations

Station Location Temp. Windchill Dew Point Humidity Wind Precip. Elev Updated Type